W.p. Scott — WDJ2782 — position and weather

sailwx.info

Track history (hours):
 
Tides and Currents Weather Stations Pressure Air Temp Water Temp Dewpoint Dewpoint Depression Visibility Wind Speed Wind Dir Waves Ship Positions

W.p. Scott

Owner: MOBRO Marine, Inc., Green Cove Springs, FL. More information available from US FCC via Universal Licensing System and Coast Guard Vessel Documentation Center.

Last reported at 2018-Jun-12 17:36 UTC. Time now 2018-Aug-18 22:29 UTC.
Position N 31°53' W 081°05'.
Warning: this ship's position is months out of date.

Length 13 m.

Type: Tug. MMSI: 367761670.

Date/timePositionNaut miles runAvg speedWind from/ knotsBaromVisibWave heightAir tempDewpointWater temp
2018-Jun-12 17:36N 31°53' W 081°05'1 9.0
2018-Jun-12 17:30N 31°53' W 081°05'3 4.5
2018-Jun-12 16:54N 31°56' W 081°04'2 5.3
2018-Jun-12 16:31N 31°58' W 081°03'2 4.4
2018-Jun-12 16:00N 31°59' W 081°02'2 4.7
2018-Jun-12 15:30N 32°02' W 081°03'3 6.4
2018-Jun-12 15:00N 32°04' W 081°01'3 5.6
2018-Jun-12 14:30N 32°04' W 080°58'2 5.0
2018-Jun-12 14:00N 32°02' W 080°56'1 2.0
2018-Jun-12 13:28N 32°02' W 080°54'0 0.1
2018-Jun-12 13:00N 32°02' W 080°54'0 0.1
2018-Jun-12 12:28N 32°02' W 080°54'0 0.0
2018-Jun-12 11:52N 32°02' W 080°54'0 0.0
2018-Jun-12 11:30N 32°02' W 080°54'0 0.0
2018-Jun-12 10:57N 32°02' W 080°54'0 0.1
2018-Jun-12 10:23N 32°02' W 080°54'0 0.2
2018-Jun-12 09:55N 32°02' W 080°55'1 1.3
2018-Jun-12 09:30N 32°02' W 080°55'2 4.2
2018-Jun-12 08:59N 32°04' W 080°57'2 4.3
2018-Jun-12 08:27N 32°04' W 080°60'2 3.6
2018-Jun-12 08:00N 32°04' W 081°02'2 3.9
2018-Jun-12 07:30N 32°02' W 081°03'2 4.1
2018-Jun-12 06:59N 32°01' W 081°01'2 4.4
2018-Jun-12 06:28N 31°59' W 081°02'1 2.3
2018-Jun-12 06:00N 31°58' W 081°03'2 4.7
2018-Jun-12 05:30N 31°56' W 081°04'  
Track history (hours):
 
Tides and Currents Weather Stations Pressure Air Temp Water Temp Dewpoint Dewpoint Depression Visibility Wind Speed Wind Dir Waves Ship Positions

W.p. Scott

Owner: MOBRO Marine, Inc., Green Cove Springs, FL. More information available from US FCC via Universal Licensing System and Coast Guard Vessel Documentation Center.

Last reported at 2018-Jun-12 17:36 UTC. Time now 2018-Aug-18 22:29 UTC.
Position N 31°53' W 081°05'.
Warning: this ship's position is months out of date.

Length 13 m.

Type: Tug. MMSI: 367761670.

Date/timePositionNaut miles runAvg speedWind from/ knotsBaromVisibWave heightAir tempDewpointWater temp
2018-Jun-12 17:36N 31°53' W 081°05'1 9.0
2018-Jun-12 17:30N 31°53' W 081°05'3 4.5
2018-Jun-12 16:54N 31°56' W 081°04'2 5.3
2018-Jun-12 16:31N 31°58' W 081°03'2 4.4
2018-Jun-12 16:00N 31°59' W 081°02'2 4.7
2018-Jun-12 15:30N 32°02' W 081°03'3 6.4
2018-Jun-12 15:00N 32°04' W 081°01'3 5.6
2018-Jun-12 14:30N 32°04' W 080°58'2 5.0
2018-Jun-12 14:00N 32°02' W 080°56'1 2.0
2018-Jun-12 13:28N 32°02' W 080°54'0 0.1
2018-Jun-12 13:00N 32°02' W 080°54'0 0.1
2018-Jun-12 12:28N 32°02' W 080°54'0 0.0
2018-Jun-12 11:52N 32°02' W 080°54'0 0.0
2018-Jun-12 11:30N 32°02' W 080°54'0 0.0
2018-Jun-12 10:57N 32°02' W 080°54'0 0.1
2018-Jun-12 10:23N 32°02' W 080°54'0 0.2
2018-Jun-12 09:55N 32°02' W 080°55'1 1.3
2018-Jun-12 09:30N 32°02' W 080°55'2 4.2
2018-Jun-12 08:59N 32°04' W 080°57'2 4.3
2018-Jun-12 08:27N 32°04' W 080°60'2 3.6
2018-Jun-12 08:00N 32°04' W 081°02'2 3.9
2018-Jun-12 07:30N 32°02' W 081°03'2 4.1
2018-Jun-12 06:59N 32°01' W 081°01'2 4.4
2018-Jun-12 06:28N 31°59' W 081°02'1 2.3
2018-Jun-12 06:00N 31°58' W 081°03'2 4.7
2018-Jun-12 05:30N 31°56' W 081°04'  

Dump ship's entire track history